Time;durP1;ratioP1;P1;durP2;ratioP2;P2;SDS_P1;SDS_P2;PMS_P1;PMS_P2;Temp;Humidity;BMP_temperature;BMP_pressure;BME280_temperature;BME280_humidity;BME280_pressure;Samples;Min_cycle;Max_cycle;Signal;HPM_P1;HPM_P2
2023/08/12 00:01:33;;;;;;;17.92;5.35;;;;;;;21.54;71.54;98805.59;5072325;28;20444;-80
2023/08/12 00:04:17;;;;;;;18.75;4.72;;;;;;;21.57;71.78;98798.91;5075379;28;20463;-81
2023/08/12 00:07:01;;;;;;;19.35;5.80;;;;;;;21.60;71.77;98799.16;5072564;28;20468;-81
2023/08/12 00:09:45;;;;;;;21.23;5.55;;;;;;;21.62;71.43;98797.03;5073528;28;20039;-81
2023/08/12 00:12:33;;;;;;;23.38;5.65;;;;;;;21.66;71.44;98797.31;5075610;28;20031;-80
2023/08/12 00:15:18;;;;;;;21.35;5.40;;;;;;;21.70;70.96;98787.66;5077031;28;20068;-80
2023/08/12 00:18:06;;;;;;;20.35;5.18;;;;;;;21.76;71.30;98775.09;5074527;28;20039;-80
2023/08/12 00:20:51;;;;;;;23.20;5.47;;;;;;;22.09;70.56;98778.91;5072194;28;20144;-82
2023/08/12 00:23:40;;;;;;;16.60;4.70;;;;;;;21.79;71.02;98775.31;5082740;28;20118;-81
2023/08/12 00:26:25;;;;;;;17.92;4.82;;;;;;;21.64;71.51;98778.06;5079924;28;20090;-81
2023/08/12 00:29:12;;;;;;;17.92;5.18;;;;;;;21.43;71.85;98775.47;5076719;28;20055;-81
2023/08/12 00:31:56;;;;;;;23.50;6.05;;;;;;;21.37;71.87;98777.34;5075358;28;20501;-82
2023/08/12 00:34:40;;;;;;;20.70;5.32;;;;;;;21.46;72.30;98774.94;5082174;28;20096;-81
2023/08/12 00:37:24;;;;;;;22.17;4.53;;;;;;;21.40;72.24;98768.00;5082054;28;20091;-81
2023/08/12 00:40:09;;;;;;;22.02;5.28;;;;;;;21.67;72.12;98764.19;5077892;28;20046;-81
2023/08/12 00:42:53;;;;;;;17.48;5.20;;;;;;;21.41;72.33;98766.91;5078368;28;20043;-81
2023/08/12 00:45:37;;;;;;;22.73;5.25;;;;;;;21.47;71.87;98771.19;5077515;28;20459;-80
2023/08/12 00:48:23;;;;;;;25.92;5.70;;;;;;;21.64;71.37;98765.50;5079351;28;20085;-81
2023/08/12 00:51:07;;;;;;;18.70;4.78;;;;;;;21.30;72.67;98760.03;5079757;28;20081;-81
2023/08/12 00:53:52;;;;;;;18.55;5.43;;;;;;;21.86;71.15;98758.22;5078241;28;20082;-81
2023/08/12 00:56:36;;;;;;;14.82;5.10;;;;;;;21.54;71.40;98747.66;5078069;28;20105;-81
2023/08/12 00:59:21;;;;;;;18.70;5.30;;;;;;;21.57;71.98;98748.16;5085000;28;20074;-80
2023/08/12 01:02:06;;;;;;;26.00;5.50;;;;;;;21.20;73.24;98755.53;5083106;28;20562;-81
2023/08/12 01:04:50;;;;;;;21.38;6.03;;;;;;;21.29;73.10;98742.41;5079654;28;20038;-81
2023/08/12 01:07:34;;;;;;;23.80;5.28;;;;;;;21.47;72.57;98744.47;5077561;28;20084;-81
2023/08/12 01:10:27;;;;;;;25.25;5.70;;;;;;;22.02;71.19;98746.34;5076379;28;20626;-81
2023/08/12 01:13:32;;;;;;;15.33;5.73;;;;;;;22.09;70.40;98738.00;5075424;28;20078;-81
2023/08/12 01:16:18;;;;;;;18.73;5.35;;;;;;;21.76;71.33;98743.81;5076396;28;20042;-82
2023/08/12 01:19:06;;;;;;;19.23;5.30;;;;;;;22.00;70.96;98743.13;5085396;28;20070;-81
2023/08/12 01:21:53;;;;;;;21.08;5.78;;;;;;;22.55;69.74;98742.22;5082019;28;20111;-81
2023/08/12 01:24:38;;;;;;;23.50;5.75;;;;;;;22.19;70.29;98747.81;5079364;28;20047;-80
2023/08/12 01:27:22;;;;;;;20.23;5.75;;;;;;;22.11;70.54;98736.66;5075650;28;20051;-80
2023/08/12 01:30:07;;;;;;;18.50;4.47;;;;;;;21.60;71.62;98728.91;5072115;28;20081;-81
2023/08/12 01:33:08;;;;;;;20.60;5.53;;;;;;;21.93;71.27;98731.97;5081946;28;20109;-81
2023/08/12 01:35:58;;;;;;;24.00;4.90;;;;;;;22.24;70.61;98731.75;5081785;28;20928;-81
2023/08/12 01:38:44;;;;;;;24.45;5.20;;;;;;;22.20;70.62;98725.34;5083031;28;20035;-81
2023/08/12 01:41:28;;;;;;;19.92;5.20;;;;;;;22.17;70.76;98715.22;5081033;28;20051;-80
2023/08/12 01:44:12;;;;;;;19.85;5.03;;;;;;;22.15;70.94;98706.69;5083518;28;20509;-80
2023/08/12 01:46:56;;;;;;;17.80;5.20;;;;;;;22.21;70.78;98706.38;5076364;28;20035;-80
2023/08/12 01:49:40;;;;;;;17.73;5.40;;;;;;;22.21;70.85;98705.59;5082178;28;20095;-81
2023/08/12 01:52:24;;;;;;;19.40;5.45;;;;;;;22.15;71.17;98701.34;5078171;28;20198;-80
2023/08/12 01:55:09;;;;;;;18.17;5.13;;;;;;;21.87;71.76;98706.38;5073355;28;20060;-81
2023/08/12 01:57:53;;;;;;;21.95;5.22;;;;;;;22.15;70.89;98704.03;5079005;28;20176;-80
2023/08/12 02:00:36;;;;;;;16.13;5.28;;;;;;;22.01;71.63;98696.66;5077523;28;20491;-81
2023/08/12 02:03:20;;;;;;;17.85;4.95;;;;;;;21.95;71.25;98697.75;5085145;28;20047;-80
2023/08/12 02:06:04;;;;;;;17.52;5.53;;;;;;;22.01;71.08;98699.34;5088149;28;20101;-81
2023/08/12 02:08:48;;;;;;;17.33;5.50;;;;;;;22.09;71.41;98685.34;5076830;28;20071;-81
2023/08/12 02:11:32;;;;;;;19.95;5.97;;;;;;;21.94;71.53;98691.63;5080969;28;20149;-81
2023/08/12 02:14:16;;;;;;;21.92;5.60;;;;;;;21.92;71.99;98695.63;5077366;28;20553;-81
2023/08/12 02:17:05;;;;;;;17.15;5.13;;;;;;;21.98;71.41;98681.16;5077316;28;20421;-82
2023/08/12 02:19:49;;;;;;;30.10;6.60;;;;;;;21.74;72.36;98687.22;5079501;28;20109;-81
2023/08/12 02:22:33;;;;;;;21.13;5.35;;;;;;;21.74;72.11;98684.53;5080481;28;20083;-81
2023/08/12 02:25:17;;;;;;;23.40;6.78;;;;;;;21.95;71.85;98676.38;5080002;28;20040;-81
2023/08/12 02:28:05;;;;;;;19.92;6.75;;;;;;;22.02;71.93;98679.53;5081736;28;20044;-81
2023/08/12 02:30:49;;;;;;;18.90;5.90;;;;;;;22.90;70.17;98672.59;5070458;28;20093;-81
2023/08/12 02:33:33;;;;;;;18.23;6.13;;;;;;;21.94;72.12;98677.44;5078898;28;20516;-81
2023/08/12 02:36:17;;;;;;;26.33;7.53;;;;;;;21.73;72.52;98668.81;5082022;28;20048;-81
2023/08/12 02:39:01;;;;;;;22.83;7.28;;;;;;;21.66;72.54;98671.78;5080462;28;20520;-81
2023/08/12 02:41:44;;;;;;;20.25;6.65;;;;;;;21.74;72.60;98665.06;5085519;28;20425;-80
2023/08/12 02:44:28;;;;;;;26.92;7.88;;;;;;;22.30;71.67;98658.44;5082110;28;20098;-80
2023/08/12 02:47:12;;;;;;;25.50;7.50;;;;;;;22.40;71.47;98654.88;5077172;28;20068;-80
2023/08/12 02:49:56;;;;;;;19.60;7.20;;;;;;;22.57;71.02;98665.16;5079637;28;20127;-81
2023/08/12 02:52:40;;;;;;;22.90;7.63;;;;;;;22.01;71.98;98674.47;5075300;28;20056;-80
2023/08/12 02:55:24;;;;;;;21.35;7.80;;;;;;;21.97;72.73;98658.19;5082611;28;20444;-81
2023/08/12 02:58:08;;;;;;;27.42;8.18;;;;;;;21.64;73.79;98647.19;5079448;28;20159;-80
2023/08/12 03:00:54;;;;;;;19.55;8.00;;;;;;;21.70;73.71;98643.44;5084622;28;20046;-80
2023/08/12 03:03:38;;;;;;;25.40;7.60;;;;;;;21.89;72.98;98637.44;5077828;28;20035;-80
2023/08/12 03:06:22;;;;;;;18.83;8.25;;;;;;;22.04;72.75;98631.16;5075263;28;20400;-80
2023/08/12 03:09:07;;;;;;;22.15;8.18;;;;;;;21.80;73.22;98626.53;5082100;28;20047;-81
2023/08/12 03:11:51;;;;;;;27.75;8.63;;;;;;;21.89;73.29;98629.41;5083683;28;20084;-81
2023/08/12 03:14:35;;;;;;;18.63;8.70;;;;;;;22.01;72.80;98631.72;5086547;28;20043;-81
2023/08/12 03:17:18;;;;;;;23.48;8.85;;;;;;;21.83;73.31;98621.44;5078670;28;20090;-81
2023/08/12 03:20:04;;;;;;;24.77;8.50;;;;;;;21.96;73.36;98621.84;5076246;28;20043;-81
2023/08/12 03:22:52;;;;;;;25.90;8.95;;;;;;;21.63;74.17;98618.91;5079910;28;20602;-81
2023/08/12 03:25:36;;;;;;;23.42;9.02;;;;;;;21.95;73.43;98629.09;5086265;28;20062;-80
2023/08/12 03:28:20;;;;;;;24.67;8.68;;;;;;;21.96;73.35;98629.88;5079265;28;20461;-81
2023/08/12 03:31:04;;;;;;;32.53;9.82;;;;;;;21.48;74.71;98625.13;5077906;28;20043;-81
2023/08/12 03:33:48;;;;;;;30.63;10.05;;;;;;;21.31;75.50;98620.16;5078301;28;20096;-81
2023/08/12 03:36:31;;;;;;;25.25;9.00;;;;;;;21.27;75.70;98609.22;5083573;28;20043;-81
2023/08/12 03:39:16;;;;;;;22.52;9.07;;;;;;;21.30;75.72;98607.88;5075965;28;20043;-81
2023/08/12 03:42:00;;;;;;;23.27;9.07;;;;;;;21.32;75.80;98606.53;5077368;28;20513;-81
2023/08/12 03:44:44;;;;;;;27.17;8.77;;;;;;;20.96;77.08;98607.50;5084059;28;20113;-81
2023/08/12 03:47:28;;;;;;;27.98;9.13;;;;;;;21.06;76.79;98598.66;5078868;28;20401;-80
2023/08/12 03:50:12;;;;;;;23.92;8.98;;;;;;;20.72;78.20;98593.19;5082014;28;20101;-80
2023/08/12 03:52:56;;;;;;;23.95;9.13;;;;;;;20.83;78.22;98594.75;5079740;28;20395;-80
2023/08/12 03:55:41;;;;;;;27.30;10.95;;;;;;;20.61;78.94;98595.88;5076699;28;20074;-80
2023/08/12 03:58:26;;;;;;;31.13;10.35;;;;;;;20.52;79.36;98602.84;5080020;28;20035;-80
2023/08/12 04:01:10;;;;;;;28.23;9.05;;;;;;;20.61;79.26;98598.53;5073950;28;20505;-80
2023/08/12 04:03:54;;;;;;;23.30;8.85;;;;;;;20.75;78.87;98604.13;5080493;28;20559;-80
2023/08/12 04:06:37;;;;;;;29.75;9.00;;;;;;;20.95;79.23;98613.91;5073812;28;20042;-80
2023/08/12 04:09:21;;;;;;;24.15;8.68;;;;;;;20.74;79.29;98607.84;5074727;28;20043;-80
2023/08/12 04:12:06;;;;;;;22.08;9.00;;;;;;;20.66;79.99;98606.53;5075420;28;20062;-80
2023/08/12 04:14:50;;;;;;;24.65;9.38;;;;;;;20.90;79.50;98605.13;5078607;28;20047;-79
2023/08/12 04:17:34;;;;;;;28.08;8.70;;;;;;;20.74;79.92;98591.03;5088976;28;20035;-80
2023/08/12 04:20:18;;;;;;;25.58;9.23;;;;;;;20.83;80.64;98600.09;5079827;28;20038;-79
2023/08/12 04:23:03;;;;;;;27.45;9.48;;;;;;;21.04;79.61;98594.69;5083255;28;20464;-80
2023/08/12 04:25:47;;;;;;;28.08;8.93;;;;;;;21.52;78.24;98592.25;5077866;28;20497;-80
2023/08/12 04:28:31;;;;;;;23.30;8.48;;;;;;;21.04;80.06;98600.03;5071626;28;20040;-79
2023/08/12 04:31:15;;;;;;;29.92;8.45;;;;;;;21.12;79.98;98597.56;5080040;28;20397;-80
2023/08/12 04:33:59;;;;;;;27.75;8.65;;;;;;;21.02;80.63;98596.81;5075395;28;20043;-81
2023/08/12 04:36:43;;;;;;;27.90;9.38;;;;;;;20.95;80.66;98595.25;5076393;28;20105;-81
2023/08/12 04:39:27;;;;;;;28.05;9.43;;;;;;;21.00;80.92;98593.63;5078826;28;20393;-81
2023/08/12 04:42:11;;;;;;;23.95;8.40;;;;;;;21.01;81.22;98588.03;5080435;28;20035;-82
2023/08/12 04:44:55;;;;;;;29.67;8.43;;;;;;;21.46;80.50;98590.69;5077313;28;20096;-80
2023/08/12 04:47:39;;;;;;;30.92;9.65;;;;;;;21.59;79.79;98583.13;5077774;28;20126;-80
2023/08/12 04:50:23;;;;;;;17.58;7.85;;;;;;;21.57;80.02;98580.75;5074076;28;20505;-81
2023/08/12 04:53:08;;;;;;;24.02;9.55;;;;;;;21.15;81.16;98576.75;5078502;28;20098;-82
2023/08/12 04:55:53;;;;;;;25.95;7.90;;;;;;;21.34;81.22;98576.88;5075342;28;20079;-81
2023/08/12 04:58:38;;;;;;;22.90;8.32;;;;;;;21.41;81.09;98582.69;5078806;28;20063;-80
2023/08/12 05:01:22;;;;;;;20.55;7.80;;;;;;;22.41;78.84;98576.25;5074569;28;20060;-81
2023/08/12 05:04:06;;;;;;;26.08;8.45;;;;;;;22.07;79.17;98577.94;5075930;28;20075;-80
2023/08/12 05:06:50;;;;;;;26.90;7.85;;;;;;;21.63;80.60;98568.16;5078207;28;20085;-81
2023/08/12 05:09:34;;;;;;;28.83;7.75;;;;;;;21.63;81.24;98576.16;5076153;28;20081;-81
2023/08/12 05:12:18;;;;;;;27.55;8.32;;;;;;;21.76;80.90;98562.19;5084620;28;20050;-80
2023/08/12 05:15:02;;;;;;;24.23;8.30;;;;;;;22.62;78.17;98568.84;5080869;28;20043;-80
2023/08/12 05:17:46;;;;;;;24.27;7.97;;;;;;;22.16;79.43;98563.94;5077470;28;20048;-81
2023/08/12 05:20:30;;;;;;;29.63;8.25;;;;;;;21.82;80.33;98554.91;5080580;28;20085;-81
2023/08/12 05:23:14;;;;;;;20.52;7.13;;;;;;;21.73;80.73;98557.41;5080512;28;20085;-80
2023/08/12 05:25:58;;;;;;;21.88;7.82;;;;;;;21.87;81.03;98556.75;5081499;28;20117;-81
2023/08/12 05:28:42;;;;;;;21.77;7.13;;;;;;;22.02;80.56;98547.78;5075919;28;20089;-81
2023/08/12 05:31:27;;;;;;;26.00;8.13;;;;;;;22.13;80.65;98553.84;5081572;28;20038;-80
2023/08/12 05:34:11;;;;;;;23.20;7.93;;;;;;;22.05;80.61;98553.38;5077502;28;20493;-80
2023/08/12 05:36:55;;;;;;;27.00;8.63;;;;;;;22.56;79.15;98548.56;5079789;28;20440;-81
2023/08/12 05:39:39;;;;;;;25.27;7.97;;;;;;;22.65;79.05;98544.19;5082810;28;20046;-80
2023/08/12 05:42:23;;;;;;;24.58;7.50;;;;;;;23.04;77.37;98536.19;5075531;28;20042;-80
2023/08/12 05:45:07;;;;;;;21.13;6.63;;;;;;;23.09;77.32;98536.13;5074088;28;20042;-80
2023/08/12 05:47:51;;;;;;;22.75;7.60;;;;;;;23.14;77.47;98544.06;5071988;28;20047;-81
2023/08/12 05:50:35;;;;;;;20.98;6.95;;;;;;;23.11;77.44;98539.28;5084216;28;20055;-80
2023/08/12 05:53:19;;;;;;;18.55;6.32;;;;;;;23.32;76.97;98539.81;5078026;28;20170;-80
2023/08/12 05:56:03;;;;;;;22.63;6.85;;;;;;;23.87;75.46;98535.69;5083934;28;20426;-81
2023/08/12 05:58:47;;;;;;;16.50;6.18;;;;;;;23.54;75.08;98536.50;5080071;28;20101;-80
2023/08/12 06:01:31;;;;;;;24.52;6.65;;;;;;;23.53;74.83;98524.22;5076498;28;20093;-80
2023/08/12 06:04:15;;;;;;;20.98;6.53;;;;;;;24.53;72.33;98526.72;5072713;28;20046;-80
2023/08/12 06:06:59;;;;;;;17.55;6.28;;;;;;;23.52;75.01;98511.13;5071625;28;20505;-81
2023/08/12 06:09:43;;;;;;;22.95;7.28;;;;;;;23.25;75.44;98517.94;5079635;28;20094;-80
2023/08/12 06:12:28;;;;;;;19.30;6.35;;;;;;;23.71;74.69;98524.47;5075005;28;20443;-80
2023/08/12 06:15:11;;;;;;;18.35;6.65;;;;;;;24.16;73.40;98529.31;5079897;28;20382;-80
2023/08/12 06:17:56;;;;;;;17.95;5.90;;;;;;;23.77;74.38;98512.56;5079599;28;20097;-80
2023/08/12 06:20:40;;;;;;;16.50;5.78;;;;;;;24.13;73.52;98527.25;5082303;28;20390;-80
2023/08/12 06:23:24;;;;;;;13.35;6.20;;;;;;;24.25;73.61;98529.41;5075876;28;20043;-80
2023/08/12 06:26:08;;;;;;;15.05;5.43;;;;;;;24.33;72.91;98530.63;5077718;28;20085;-80
2023/08/12 06:28:52;;;;;;;20.60;5.47;;;;;;;24.44;72.75;98531.97;5073667;28;20039;-80
2023/08/12 06:31:36;;;;;;;19.63;6.18;;;;;;;23.85;73.94;98537.09;5078474;28;20199;-80
2023/08/12 06:34:20;;;;;;;20.23;6.50;;;;;;;23.18;76.43;98544.28;5075454;28;20637;-80
2023/08/12 06:37:04;;;;;;;25.02;6.00;;;;;;;22.71;77.25;98544.13;5078061;28;20114;-80
2023/08/12 06:39:48;;;;;;;18.38;6.10;;;;;;;22.57;77.96;98546.69;5071959;28;20512;-79
2023/08/12 06:42:32;;;;;;;16.88;6.28;;;;;;;23.41;76.31;98541.84;5071387;28;20051;-80
2023/08/12 06:45:16;;;;;;;21.40;6.32;;;;;;;23.67;75.84;98539.53;5068445;28;20469;-80
2023/08/12 06:48:02;;;;;;;21.92;6.22;;;;;;;23.71;75.91;98550.47;5074037;28;20116;-79
2023/08/12 06:50:46;;;;;;;17.02;5.97;;;;;;;23.77;75.26;98535.88;5075244;28;20098;-79
2023/08/12 06:53:30;;;;;;;14.00;5.63;;;;;;;23.80;75.18;98533.44;5074482;28;20047;-79
2023/08/12 06:56:14;;;;;;;16.40;5.38;;;;;;;24.21;73.51;98547.97;5072099;28;20124;-79
2023/08/12 06:58:58;;;;;;;21.55;6.50;;;;;;;23.95;74.22;98547.63;5073057;28;20063;-79
2023/08/12 07:01:42;;;;;;;16.60;5.55;;;;;;;23.37;76.32;98553.13;5075711;28;20047;-81
2023/08/12 07:04:26;;;;;;;19.13;5.75;;;;;;;23.56;76.01;98548.81;5077524;28;20081;-81
2023/08/12 07:07:10;;;;;;;15.80;5.95;;;;;;;23.91;75.21;98544.75;5082953;28;20055;-84
2023/08/12 07:09:54;;;;;;;17.00;5.28;;;;;;;24.80;73.12;98541.22;5079851;28;20093;-83
2023/08/12 07:12:38;;;;;;;11.23;4.93;;;;;;;25.44;70.81;98540.31;5077339;28;20488;-83
2023/08/12 07:15:22;;;;;;;9.95;4.32;;;;;;;25.61;70.67;98542.34;5083144;28;20123;-84
2023/08/12 07:18:06;;;;;;;14.38;4.75;;;;;;;25.63;69.57;98547.41;5081182;28;20043;-83
2023/08/12 07:20:50;;;;;;;12.20;4.70;;;;;;;25.54;70.08;98547.38;5079383;28;20105;-82
2023/08/12 07:23:34;;;;;;;11.20;3.90;;;;;;;24.51;72.80;98545.00;5079902;28;20059;-86
2023/08/12 07:26:18;;;;;;;6.45;3.50;;;;;;;24.69;72.08;98540.63;5077463;28;20047;-84
2023/08/12 07:29:03;;;;;;;7.28;3.22;;;;;;;24.25;73.81;98551.66;5076139;28;20071;-84
2023/08/12 07:31:46;;;;;;;5.43;2.97;;;;;;;24.06;75.22;98541.03;5077076;28;20525;-84
2023/08/12 07:34:30;;;;;;;9.93;4.18;;;;;;;24.03;76.25;98530.91;5077667;28;21629;-84
2023/08/12 07:37:14;;;;;;;8.23;3.67;;;;;;;24.81;76.00;98530.19;5077963;28;20082;-84
2023/08/12 07:39:58;;;;;;;9.68;4.57;;;;;;;24.85;75.71;98532.25;5075344;28;20109;-83
2023/08/12 07:42:42;;;;;;;8.00;4.03;;;;;;;24.95;75.18;98532.81;5080096;28;20044;-84
2023/08/12 07:45:26;;;;;;;11.77;4.40;;;;;;;24.93;75.44;98516.22;5079136;28;20078;-83
2023/08/12 07:48:11;;;;;;;10.65;4.95;;;;;;;25.06;73.84;98527.22;5076596;28;20058;-85
2023/08/12 07:50:57;;;;;;;11.35;4.43;;;;;;;25.23;73.33;98513.94;5072681;28;20101;-84
2023/08/12 07:53:41;;;;;;;8.98;4.50;;;;;;;25.27;72.84;98513.31;5078947;28;20059;-82
2023/08/12 07:56:25;;;;;;;8.48;4.45;;;;;;;25.21;72.29;98508.09;5078097;28;20054;-83
2023/08/12 07:59:10;;;;;;;12.93;5.38;;;;;;;25.35;71.63;98509.91;5072683;28;20051;-80
2023/08/12 08:01:54;;;;;;;8.10;4.40;;;;;;;25.60;72.40;98513.09;5076576;28;20082;-78
2023/08/12 08:04:40;;;;;;;10.38;4.82;;;;;;;25.64;72.03;98514.06;5081579;28;20106;-79
2023/08/12 08:07:24;;;;;;;11.43;4.75;;;;;;;25.99;71.95;98513.44;5075396;28;20042;-79
2023/08/12 08:10:10;;;;;;;12.77;5.22;;;;;;;26.16;71.20;98499.28;5075891;28;20093;-78
2023/08/12 08:12:54;;;;;;;13.38;5.00;;;;;;;25.83;70.96;98500.41;5080143;28;20042;-79
2023/08/12 08:15:38;;;;;;;8.20;4.20;;;;;;;25.55;71.77;98499.78;5074883;28;20051;-80
2023/08/12 08:18:22;;;;;;;7.53;4.28;;;;;;;25.91;70.93;98490.78;5081097;28;20543;-80
2023/08/12 08:21:07;;;;;;;8.50;4.35;;;;;;;26.79;68.68;98491.03;5076775;28;20091;-79
2023/08/12 08:24:01;;;;;;;8.95;3.50;;;;;;;26.48;68.44;98495.44;5084204;28;20431;-80
2023/08/12 08:26:48;;;;;;;9.93;4.22;;;;;;;26.13;69.66;98502.56;5081318;28;20039;-79
2023/08/12 08:29:32;;;;;;;8.88;4.00;;;;;;;26.28;69.37;98482.56;5079458;28;20031;-80
2023/08/12 08:32:16;;;;;;;7.07;3.80;;;;;;;25.86;69.29;98478.28;5082169;28;20500;-79
2023/08/12 08:35:01;;;;;;;10.20;4.28;;;;;;;25.74;69.76;98478.84;5078672;28;20042;-80
2023/08/12 08:37:45;;;;;;;18.00;4.85;;;;;;;25.72;70.13;98477.59;5078816;28;20043;-79
2023/08/12 08:40:29;;;;;;;13.55;5.22;;;;;;;25.73;70.48;98469.19;5075026;28;20414;-79
2023/08/12 08:43:20;;;;;;;11.77;4.93;;;;;;;26.13;70.34;98462.22;5072900;28;20070;-80
2023/08/12 08:46:05;;;;;;;21.13;6.18;;;;;;;26.32;70.00;98448.53;5081066;28;20071;-80
2023/08/12 08:48:51;;;;;;;17.35;4.95;;;;;;;26.24;68.75;98452.81;5072430;28;20516;-79
2023/08/12 08:51:35;;;;;;;13.18;4.30;;;;;;;26.50;69.24;98460.91;5082067;28;20035;-80
2023/08/12 08:54:21;;;;;;;10.85;3.95;;;;;;;25.96;70.04;98439.59;5075619;28;20153;-80
2023/08/12 08:57:06;;;;;;;12.95;5.20;;;;;;;26.62;68.67;98452.22;5076869;28;20113;-80
2023/08/12 08:59:50;;;;;;;14.65;5.05;;;;;;;26.50;68.42;98460.13;5075097;28;20135;-80
2023/08/12 09:02:35;;;;;;;17.45;5.07;;;;;;;26.61;68.96;98472.16;5073380;28;20046;-81
2023/08/12 09:05:20;;;;;;;18.88;4.80;;;;;;;27.20;67.12;98465.53;5082411;28;20058;-80
2023/08/12 09:08:10;;;;;;;16.17;4.90;;;;;;;26.54;67.96;98463.78;5075524;28;20563;-80
2023/08/12 09:10:56;;;;;;;16.15;4.93;;;;;;;27.17;66.92;98458.09;5078004;28;20074;-80
2023/08/12 09:13:40;;;;;;;14.18;4.78;;;;;;;27.11;65.83;98453.94;5079600;28;20031;-80
2023/08/12 09:16:24;;;;;;;14.40;5.13;;;;;;;26.84;66.76;98452.38;5077745;28;20402;-80
2023/08/12 09:19:08;;;;;;;15.52;5.00;;;;;;;27.02;66.22;98450.50;5076121;28;20043;-80
2023/08/12 09:21:54;;;;;;;14.40;4.78;;;;;;;26.37;67.47;98438.44;5078141;28;20723;-80
2023/08/12 09:24:38;;;;;;;18.52;5.47;;;;;;;26.90;66.56;98446.53;5074040;28;20043;-79
2023/08/12 09:27:22;;;;;;;17.73;4.85;;;;;;;26.79;66.42;98450.63;5071246;28;20059;-79
2023/08/12 09:30:07;;;;;;;16.73;5.00;;;;;;;26.60;67.09;98451.75;5077822;28;20047;-78
2023/08/12 09:33:10;;;;;;;21.58;5.10;;;;;;;26.68;67.00;98447.47;5072000;28;20090;-80
2023/08/12 09:35:56;;;;;;;18.02;5.32;;;;;;;27.31;65.76;98457.09;5074449;28;20120;-78
2023/08/12 09:38:40;;;;;;;17.10;5.07;;;;;;;27.47;65.95;98452.78;5074257;28;20047;-78
2023/08/12 09:41:26;;;;;;;20.45;5.13;;;;;;;27.61;64.93;98439.13;5073240;28;20085;-78
2023/08/12 09:44:10;;;;;;;13.55;4.80;;;;;;;27.06;66.23;98454.13;5078883;28;20075;-78
2023/08/12 09:47:05;;;;;;;14.43;4.82;;;;;;;27.35;64.86;98453.44;5075988;28;21976;-78
2023/08/12 09:49:49;;;;;;;16.48;5.18;;;;;;;26.69;66.36;98449.06;5076111;28;22137;-78
2023/08/12 09:52:33;;;;;;;15.32;4.93;;;;;;;27.42;65.37;98455.66;5075998;28;20451;-77
2023/08/12 09:55:18;;;;;;;16.20;5.07;;;;;;;27.22;65.86;98449.81;5072598;28;20100;-78
2023/08/12 09:58:07;;;;;;;16.85;5.40;;;;;;;26.88;67.20;98446.06;5071985;28;20078;-78
2023/08/12 10:00:52;;;;;;;16.90;4.82;;;;;;;26.93;66.98;98440.53;5074810;28;20447;-78
2023/08/12 10:03:37;;;;;;;13.32;5.05;;;;;;;27.21;66.01;98429.38;5082627;28;20046;-78
2023/08/12 10:06:21;;;;;;;14.55;4.90;;;;;;;27.25;66.35;98439.50;5077165;28;20078;-78
2023/08/12 10:09:08;;;;;;;17.00;4.40;;;;;;;26.84;67.93;98433.53;5082671;28;20063;-79
2023/08/12 10:11:53;;;;;;;13.27;4.38;;;;;;;27.46;66.05;98437.72;5078679;28;20090;-79
2023/08/12 10:14:38;;;;;;;11.02;4.18;;;;;;;27.62;65.36;98446.09;5078011;28;20102;-79
2023/08/12 10:17:24;;;;;;;14.85;4.72;;;;;;;28.30;64.87;98455.31;5079931;28;20040;-79
2023/08/12 10:20:13;;;;;;;14.15;5.63;;;;;;;28.42;63.45;98459.19;5073185;28;20066;-79
2023/08/12 10:23:00;;;;;;;13.30;4.00;;;;;;;29.00;62.68;98455.91;5088765;28;20055;-79
2023/08/12 10:25:45;;;;;;;14.30;4.68;;;;;;;28.64;62.84;98445.38;5087885;28;20043;-79
2023/08/12 10:28:31;;;;;;;12.57;3.80;;;;;;;28.59;62.75;98458.28;5079690;28;20193;-78
2023/08/12 10:31:15;;;;;;;15.90;4.28;;;;;;;29.17;61.66;98444.94;5083352;28;20047;-78
2023/08/12 10:33:59;;;;;;;12.95;4.38;;;;;;;29.33;62.14;98433.50;5076950;28;20517;-78
2023/08/12 10:36:44;;;;;;;11.13;4.10;;;;;;;29.35;61.02;98444.75;5085497;28;20500;-78
2023/08/12 10:39:31;;;;;;;13.07;4.30;;;;;;;29.24;61.17;98438.19;5079633;28;20044;-79
2023/08/12 10:42:44;;;;;;;9.60;4.05;;;;;;;28.92;62.30;98444.88;5079208;28;20040;-78
2023/08/12 10:45:53;;;;;;;10.98;4.00;;;;;;;29.57;60.04;98448.19;5079932;28;20055;-78
2023/08/12 10:48:56;;;;;;;10.32;3.97;;;;;;;29.70;59.04;98452.50;5074903;28;20050;-78
2023/08/12 10:51:51;;;;;;;10.43;3.70;;;;;;;29.31;59.57;98449.25;5082689;28;20139;-81
2023/08/12 10:54:35;;;;;;;10.05;4.10;;;;;;;29.11;59.97;98448.97;5081174;28;20524;-81
2023/08/12 10:57:38;;;;;;;15.70;3.72;;;;;;;29.36;60.51;98451.75;5080483;28;20556;-82
2023/08/12 11:00:27;;;;;;;10.80;3.85;;;;;;;30.25;59.48;98456.91;5078400;28;20390;-81
2023/08/12 11:03:11;;;;;;;13.35;3.85;;;;;;;29.86;60.10;98446.41;5073298;28;20059;-81
2023/08/12 11:05:59;;;;;;;14.93;4.40;;;;;;;30.04;59.80;98439.66;5083477;28;20106;-81
2023/08/12 11:08:51;;;;;;;15.18;4.70;;;;;;;30.45;59.44;98430.78;5080018;28;20097;-81
2023/08/12 11:11:35;;;;;;;12.10;4.35;;;;;;;30.66;57.86;98433.34;5076567;28;20398;-81
2023/08/12 11:14:23;;;;;;;15.38;4.95;;;;;;;30.61;57.43;98430.88;5081668;28;20044;-81
2023/08/12 11:17:14;;;;;;;11.10;3.90;;;;;;;29.93;58.87;98438.53;5080891;28;20051;-81
2023/08/12 11:20:00;;;;;;;13.95;5.00;;;;;;;30.13;59.42;98422.53;5076837;28;20047;-81
2023/08/12 11:22:44;;;;;;;13.88;4.63;;;;;;;29.89;59.14;98424.09;5080851;28;20104;-81
2023/08/12 11:25:29;;;;;;;14.13;4.10;;;;;;;30.08;59.54;98426.25;5082855;28;20077;-81
2023/08/12 11:28:13;;;;;;;13.88;4.07;;;;;;;29.85;59.92;98434.00;5082131;28;20042;-81
2023/08/12 11:30:57;;;;;;;6.80;3.55;;;;;;;30.29;59.44;98434.22;5080913;28;20063;-81
2023/08/12 11:33:41;;;;;;;11.07;4.00;;;;;;;30.27;59.43;98439.19;5077875;28;20119;-82
2023/08/12 11:36:31;;;;;;;9.50;4.18;;;;;;;30.28;59.05;98429.13;5079250;28;20043;-79
2023/08/12 11:39:15;;;;;;;10.15;3.78;;;;;;;30.39;58.89;98418.63;5077936;28;20050;-80
2023/08/12 11:41:59;;;;;;;11.40;3.58;;;;;;;30.27;59.15;98422.94;5079784;28;20043;-81
2023/08/12 11:44:43;;;;;;;6.80;3.53;;;;;;;30.53;59.94;98426.38;5079941;28;20081;-80
2023/08/12 11:47:27;;;;;;;8.50;3.63;;;;;;;30.34;59.36;98431.28;5082655;28;20047;-80
2023/08/12 11:50:12;;;;;;;8.00;3.58;;;;;;;30.10;59.36;98415.88;5074082;28;20039;-80
2023/08/12 11:53:00;;;;;;;8.00;3.08;;;;;;;29.82;59.42;98423.84;5078438;28;20047;-80
2023/08/12 11:55:44;;;;;;;6.72;3.00;;;;;;;29.77;59.36;98422.16;5078313;28;20500;-80
2023/08/12 11:58:36;;;;;;;7.85;2.70;;;;;;;29.71;59.23;98424.31;5077978;28;20507;-80
2023/08/12 12:01:23;;;;;;;;;;;;;;;29.88;58.58;98426.00;5081799;28;20030;-80
2023/08/12 12:04:10;;;;;;;7.93;2.60;;;;;;;30.08;59.23;98426.25;5085486;28;20406;-80
2023/08/12 12:06:54;;;;;;;5.38;2.50;;;;;;;30.01;61.58;98437.59;5076729;28;20089;-82
2023/08/12 12:09:43;;;;;;;7.03;2.92;;;;;;;29.83;62.41;98431.66;5074783;28;20114;-82
2023/08/12 12:12:27;;;;;;;8.38;3.25;;;;;;;29.77;67.57;98447.31;5081123;28;20038;-79
2023/08/12 12:15:15;;;;;;;8.23;3.40;;;;;;;28.88;69.73;98449.31;5075638;28;20059;-81
2023/08/12 12:17:59;;;;;;;5.85;2.90;;;;;;;28.37;70.73;98446.69;5079155;28;20051;-80
2023/08/12 12:20:57;;;;;;;6.68;3.05;;;;;;;28.31;71.99;98454.19;5085500;28;20454;-81
2023/08/12 12:23:41;;;;;;;9.98;3.30;;;;;;;28.00;71.61;98460.69;5076490;28;20047;-81
2023/08/12 12:26:25;;;;;;;10.15;3.25;;;;;;;28.17;71.61;98454.41;5078003;28;20039;-82
2023/08/12 12:29:13;;;;;;;11.02;3.30;;;;;;;28.18;72.28;98447.91;5076449;28;20086;-79
2023/08/12 12:32:00;;;;;;;5.65;3.28;;;;;;;27.92;73.42;98448.03;5081513;28;20055;-77
2023/08/12 12:34:44;;;;;;;7.22;3.42;;;;;;;27.88;74.16;98444.41;5076737;28;20051;-80
2023/08/12 12:37:28;;;;;;;7.18;3.15;;;;;;;27.96;73.36;98446.28;5080533;28;20044;-77
2023/08/12 12:40:12;;;;;;;7.13;3.70;;;;;;;28.65;73.26;98446.94;5076579;28;20051;-79
2023/08/12 12:42:56;;;;;;;9.32;3.70;;;;;;;28.87;72.56;98447.75;5078626;28;20047;-79
2023/08/12 12:45:40;;;;;;;6.97;3.47;;;;;;;28.95;71.10;98443.38;5075404;28;20075;-79
2023/08/12 12:48:24;;;;;;;8.95;3.78;;;;;;;29.06;71.60;98441.88;5075637;28;20066;-79
2023/08/12 12:51:08;;;;;;;7.43;3.25;;;;;;;29.24;69.50;98443.59;5072048;28;20124;-79